createdAt,value
2023-04-13T17:19:04.101Z,42.69
2023-04-13T17:20:04.005Z,42.98
2023-04-13T17:21:03.955Z,43.46
2023-04-13T17:22:03.911Z,44.03
2023-04-13T17:23:03.872Z,44.13
2023-04-13T17:24:03.832Z,45.18
2023-04-13T17:25:03.775Z,44.78
2023-04-13T17:26:03.746Z,44.87
2023-04-13T17:27:03.686Z,45.16
2023-04-13T17:28:03.641Z,46.12
2023-04-13T17:29:03.612Z,46.22
2023-04-13T17:30:03.570Z,46.60
2023-04-13T17:31:03.555Z,47.15
2023-04-13T17:32:03.512Z,47.82
2023-04-13T17:33:03.465Z,47.63
2023-04-13T17:34:03.385Z,47.44
2023-04-13T17:35:03.406Z,47.53
2023-04-13T17:36:03.294Z,47.82
2023-04-13T17:37:03.250Z,48.21
2023-04-13T17:38:46.607Z,48.97
2023-04-13T17:39:46.596Z,50.38
2023-04-13T17:40:46.531Z,51.82
2023-04-13T17:41:46.491Z,51.25
2023-04-13T17:42:46.442Z,49.43
2023-04-13T17:43:46.403Z,49.52
2023-04-13T17:44:46.349Z,49.24
2023-04-13T17:45:46.324Z,49.24
2023-04-13T17:46:46.265Z,49.31
2023-04-13T17:47:46.254Z,49.60
2023-04-13T17:48:46.178Z,49.88
2023-04-13T17:49:46.140Z,50.65
2023-04-13T17:50:46.119Z,50.84
2023-04-13T17:51:46.044Z,50.74
2023-04-13T17:52:46.001Z,50.46
2023-04-13T17:53:45.961Z,53.14
2023-04-13T17:54:45.912Z,52.75
2023-04-13T17:55:45.870Z,52.66
2023-04-13T17:56:45.834Z,53.91
2023-04-13T17:57:45.789Z,53.40
2023-04-13T17:58:45.739Z,54.93
2023-04-13T17:59:45.727Z,53.78
2023-04-13T18:00:45.686Z,53.30
2023-04-13T18:01:45.731Z,51.68
2023-04-13T18:02:45.760Z,51.77
2023-04-13T18:03:45.638Z,51.58
2023-04-13T18:04:45.552Z,51.10
2023-04-13T18:05:45.448Z,50.72
2023-04-13T18:06:45.456Z,50.24
2023-04-13T18:07:45.346Z,49.48
2023-04-13T18:08:45.303Z,50.79
2023-04-13T18:09:45.258Z,50.79
2023-04-13T18:10:45.217Z,51.56
2023-04-13T18:11:45.184Z,51.93
2023-04-13T18:12:45.127Z,50.41
2023-04-13T18:13:45.082Z,49.84
2023-04-13T18:14:45.043Z,49.16
2023-04-13T18:15:45.037Z,48.88
2023-04-13T18:16:44.993Z,49.64
2023-04-13T18:17:44.943Z,50.21
2023-04-13T18:18:44.868Z,50.38
2023-04-13T18:19:44.825Z,51.43
2023-04-13T18:20:44.776Z,50.38
2023-04-13T18:21:44.742Z,50.48
2023-04-13T18:22:44.714Z,50.38
2023-04-13T18:23:44.651Z,50.38
2023-04-13T18:24:44.598Z,50.38
2023-04-13T18:25:44.552Z,50.86
2023-04-13T18:26:44.530Z,50.76
2023-04-13T18:27:44.469Z,50.57
2023-04-13T18:28:44.428Z,50.76
2023-04-13T18:29:44.379Z,52.67
2023-04-13T18:30:44.332Z,54.56
2023-04-13T18:31:44.337Z,55.13
2023-04-13T18:37:13.079Z,59.98
2023-04-13T18:38:13.053Z,60.84
2023-04-13T18:39:12.988Z,60.74
2023-04-13T18:40:56.331Z,62.75
2023-04-13T18:42:44.678Z,63.67
2023-04-13T18:43:44.629Z,63.96
2023-04-13T18:44:44.589Z,64.72
2023-04-13T18:45:44.542Z,65.30
2023-04-13T18:46:44.542Z,66.44
2023-04-13T18:47:44.495Z,65.77
2023-04-13T18:48:44.413Z,66.31
2023-04-13T18:49:44.363Z,66.41
2023-04-13T18:50:44.321Z,66.98
2023-04-13T18:51:44.288Z,66.22
2023-04-13T18:52:44.233Z,66.98
2023-04-13T18:53:44.211Z,67.27
2023-04-13T18:54:44.150Z,67.93
2023-04-13T18:55:45.828Z,67.55
2023-04-13T18:58:07.490Z,67.71
2023-04-13T18:59:07.451Z,68.18
2023-04-13T19:00:07.412Z,68.76
2023-04-13T19:01:07.386Z,69.04
2023-04-13T19:02:07.355Z,69.04
2023-04-13T19:03:07.337Z,69.62
2023-04-13T19:04:07.275Z,69.62
2023-04-13T19:05:07.179Z,71.04
2023-04-13T19:06:07.142Z,71.11
2023-04-13T19:22:30.251Z,73.83
2023-04-13T19:23:30.188Z,73.89
2023-04-13T19:24:30.152Z,74.27
2023-04-13T19:25:30.082Z,74.37
2023-04-13T19:26:30.047Z,75.04
2023-04-13T19:27:29.987Z,75.23
2023-04-13T19:33:33.874Z,77.13
2023-04-13T19:35:33.722Z,78.08
2023-04-13T19:37:33.883Z,78.80
2023-04-13T19:38:33.764Z,78.90
2023-04-13T20:06:05.509Z,84.28
2023-04-13T20:07:05.389Z,84.47
2023-04-13T20:32:46.497Z,87.19
2023-04-13T20:33:46.409Z,87.57
2023-04-13T20:34:46.349Z,87.66
2023-04-13T20:35:46.293Z,87.28
2023-04-13T20:36:46.245Z,87.95
2023-04-13T23:29:03.963Z,99.99
2023-04-13T23:30:03.796Z,99.99
2023-04-13T23:31:03.745Z,99.99
2023-04-13T23:32:03.727Z,99.99
2023-04-13T23:33:03.700Z,99.99
2023-04-13T23:34:03.598Z,99.99
2023-04-13T23:35:03.564Z,99.99
2023-04-13T23:36:03.523Z,99.99
2023-04-13T23:37:03.457Z,99.99
2023-04-13T23:38:03.400Z,99.99
2023-04-13T23:39:03.359Z,99.99
2023-04-13T23:40:03.331Z,99.99
2023-04-13T23:41:03.257Z,99.99
2023-04-13T23:43:41.651Z,99.99
2023-04-13T23:44:41.618Z,99.99
2023-04-13T23:45:41.575Z,99.99
2023-04-13T23:46:41.504Z,99.99
2023-04-13T23:50:08.040Z,99.99
2023-04-13T23:51:08.001Z,99.99
2023-04-13T23:52:08.069Z,99.99
2023-04-13T23:53:07.896Z,99.99
2023-04-13T23:54:07.855Z,99.99
2023-04-13T23:55:07.828Z,99.99
2023-04-13T23:56:07.757Z,99.99
2023-04-13T23:57:07.705Z,99.99
2023-04-13T23:58:07.657Z,99.99
2023-04-13T23:59:07.622Z,99.99
